createdAt,value
2023-03-16T00:01:36.904Z,1.20
2023-03-16T00:04:06.411Z,1.17
2023-03-16T00:06:34.355Z,1.20
2023-03-16T00:09:02.288Z,1.03
2023-03-16T00:11:30.696Z,0.87
2023-03-16T00:13:58.868Z,1.00
2023-03-16T00:16:26.839Z,1.13
2023-03-16T00:18:54.754Z,1.20
2023-03-16T00:21:24.049Z,1.30
2023-03-16T00:23:53.484Z,1.20
2023-03-16T00:26:22.543Z,1.20
2023-03-16T00:28:54.308Z,1.20
2023-03-16T00:31:25.095Z,1.50
2023-03-16T00:33:53.154Z,1.40
2023-03-16T00:36:23.204Z,1.20
2023-03-16T00:38:51.493Z,1.50
2023-03-16T00:41:19.465Z,1.00
2023-03-16T00:43:48.955Z,1.40
2023-03-16T00:46:18.988Z,1.43
2023-03-16T00:48:48.310Z,1.23
2023-03-16T00:51:18.733Z,1.80
2023-03-16T00:53:48.689Z,1.13
2023-03-16T00:56:18.003Z,1.27
2023-03-16T00:58:45.976Z,1.47
2023-03-16T01:01:16.897Z,1.40
2023-03-16T01:03:44.848Z,1.20
2023-03-16T01:06:15.242Z,1.40
2023-03-16T01:08:43.223Z,1.27
2023-03-16T01:11:16.523Z,1.30
2023-03-16T01:13:47.143Z,1.37
2023-03-16T01:16:15.950Z,1.20
2023-03-16T01:18:43.905Z,1.20
2023-03-16T01:21:14.012Z,1.50
2023-03-16T01:23:44.158Z,1.30
2023-03-16T01:26:15.292Z,1.17
2023-03-16T01:28:44.534Z,1.27
2023-03-16T01:31:15.445Z,1.10
2023-03-16T01:33:44.489Z,1.00
2023-03-16T01:36:17.666Z,1.00
2023-03-16T01:38:54.125Z,1.23
2023-03-16T01:41:24.237Z,1.00
2023-03-16T01:43:53.742Z,1.10
2023-03-16T01:46:25.013Z,1.00
2023-03-16T01:49:09.212Z,1.03
2023-03-16T01:51:44.026Z,1.00
2023-03-16T01:54:19.430Z,1.07
2023-03-16T01:56:55.334Z,0.90
2023-03-16T01:59:27.260Z,1.00
2023-03-16T02:01:56.263Z,1.20
2023-03-16T02:04:33.851Z,1.10
2023-03-16T02:07:04.712Z,1.00
2023-03-16T02:09:33.164Z,0.90
2023-03-16T02:12:03.039Z,1.03
2023-03-16T02:14:33.206Z,0.90
2023-03-16T02:17:01.222Z,1.03
2023-03-16T02:19:42.791Z,1.20
2023-03-16T02:22:11.817Z,0.90
2023-03-16T02:24:39.723Z,1.07
2023-03-16T02:27:11.840Z,1.00
2023-03-16T02:29:55.371Z,1.30
2023-03-16T02:32:25.516Z,1.40
2023-03-16T02:34:53.616Z,1.17
2023-03-16T02:37:21.989Z,1.07
2023-03-16T02:39:50.320Z,1.27
2023-03-16T02:42:22.951Z,1.20
2023-03-16T02:44:56.926Z,1.30
2023-03-16T02:47:35.740Z,0.90
2023-03-16T02:50:06.756Z,0.90
2023-03-16T02:52:35.244Z,1.07
2023-03-16T02:55:03.756Z,1.30
2023-03-16T02:57:31.732Z,0.80
2023-03-16T03:00:11.637Z,1.03
2023-03-16T03:02:40.473Z,0.80
2023-03-16T03:05:08.997Z,0.77
2023-03-16T03:07:37.846Z,0.70
2023-03-16T03:10:08.944Z,0.80
2023-03-16T03:12:36.970Z,0.93
2023-03-16T03:15:11.182Z,0.80
2023-03-16T03:17:47.413Z,0.90
2023-03-16T03:20:17.571Z,1.00
2023-03-16T03:22:47.648Z,1.13
2023-03-16T03:25:18.402Z,1.20
2023-03-16T03:27:47.691Z,1.20
2023-03-16T03:30:21.163Z,1.10
2023-03-16T03:32:49.607Z,1.10
2023-03-16T03:35:20.159Z,1.03
2023-03-16T03:37:48.388Z,1.07
2023-03-16T03:40:19.743Z,1.23
2023-03-16T03:42:51.395Z,1.07
2023-03-16T03:45:20.827Z,1.43
2023-03-16T03:47:48.778Z,1.03
2023-03-16T03:50:21.094Z,0.97
2023-03-16T03:53:09.069Z,1.10
2023-03-16T03:55:49.931Z,1.30
2023-03-16T03:58:18.041Z,0.90
2023-03-16T04:00:47.518Z,0.80
2023-03-16T04:03:16.315Z,1.17
2023-03-16T04:05:46.256Z,1.10
2023-03-16T04:08:14.170Z,1.00
2023-03-16T04:10:42.437Z,1.10
2023-03-16T04:13:10.362Z,1.00
2023-03-16T04:15:39.498Z,1.10
2023-03-16T04:18:14.117Z,0.90
2023-03-16T04:20:43.205Z,0.90
2023-03-16T04:23:16.635Z,1.40
2023-03-16T04:25:45.470Z,1.07
2023-03-16T04:28:18.069Z,1.00
2023-03-16T04:30:48.895Z,1.10
2023-03-16T04:33:27.739Z,0.90
2023-03-16T04:35:56.189Z,1.10
2023-03-16T04:38:25.346Z,0.90
2023-03-16T04:40:56.803Z,0.90
2023-03-16T04:43:28.877Z,1.17
2023-03-16T04:46:04.164Z,1.13
2023-03-16T04:48:34.103Z,0.90
2023-03-16T04:51:04.105Z,1.00
2023-03-16T04:53:34.424Z,0.90
2023-03-16T04:56:10.461Z,1.07
2023-03-16T04:58:38.614Z,0.80
2023-03-16T05:01:08.182Z,0.90
2023-03-16T05:03:37.592Z,0.90
2023-03-16T05:06:05.795Z,1.00
2023-03-16T05:08:35.949Z,0.97
2023-03-16T05:11:03.956Z,0.90
2023-03-16T05:13:36.299Z,0.93
2023-03-16T05:16:06.122Z,0.80
2023-03-16T05:18:40.190Z,0.90
2023-03-16T05:21:08.229Z,0.97
2023-03-16T05:23:56.410Z,1.10
2023-03-16T05:26:25.505Z,1.30
2023-03-16T05:28:53.613Z,1.13
2023-03-16T05:31:26.616Z,1.50
2023-03-16T05:34:00.370Z,1.40
2023-03-16T05:36:28.333Z,1.47
2023-03-16T05:39:02.173Z,1.50
2023-03-16T05:41:37.847Z,1.47
2023-03-16T05:44:13.691Z,1.33
2023-03-16T05:47:05.177Z,1.00
2023-03-16T05:49:37.290Z,1.03
2023-03-16T05:52:10.201Z,0.80
2023-03-16T05:54:38.331Z,0.90
2023-03-16T05:57:07.090Z,1.10
2023-03-16T05:59:36.250Z,0.90
2023-03-16T06:02:05.343Z,1.30
2023-03-16T06:04:33.726Z,1.30
2023-03-16T06:07:03.259Z,0.90
2023-03-16T06:09:31.878Z,0.90
2023-03-16T06:12:00.540Z,0.83
2023-03-16T06:14:30.281Z,1.20
2023-03-16T06:16:58.473Z,1.80
2023-03-16T06:19:26.538Z,1.90
2023-03-16T06:21:59.638Z,2.40
2023-03-16T06:24:30.110Z,1.87
2023-03-16T06:26:58.031Z,1.50
2023-03-16T06:29:32.355Z,1.20
2023-03-16T06:32:01.732Z,1.33
2023-03-16T06:34:30.507Z,0.93
2023-03-16T06:36:58.602Z,1.17
2023-03-16T06:39:26.927Z,1.30
2023-03-16T06:41:56.912Z,1.07
2023-03-16T06:44:25.107Z,1.13
2023-03-16T06:47:10.454Z,1.80
2023-03-16T06:49:38.498Z,1.80
2023-03-16T06:52:15.018Z,2.00
2023-03-16T06:54:43.083Z,1.80
2023-03-16T06:57:13.977Z,1.73
2023-03-16T06:59:41.924Z,1.50
2023-03-16T07:02:12.030Z,1.40
2023-03-16T07:04:40.490Z,2.13
2023-03-16T07:07:08.732Z,1.30
2023-03-16T07:09:39.642Z,1.50
2023-03-16T07:12:09.555Z,1.33
2023-03-16T07:14:40.369Z,1.40
2023-03-16T07:17:11.437Z,1.60
2023-03-16T07:19:39.540Z,1.60
2023-03-16T07:22:07.743Z,1.40
2023-03-16T07:24:39.177Z,1.30
2023-03-16T07:27:07.311Z,1.27
2023-03-16T07:29:35.540Z,1.60
2023-03-16T07:32:07.168Z,2.23
2023-03-16T07:34:39.165Z,2.17
2023-03-16T07:37:09.170Z,2.20
2023-03-16T07:39:38.418Z,2.87
2023-03-16T07:42:11.277Z,8.47
2023-03-16T07:44:50.597Z,16.57
2023-03-16T07:47:21.290Z,6.13
2023-03-16T07:49:50.714Z,6.07
2023-03-16T07:52:19.089Z,2.77
2023-03-16T07:54:48.852Z,1.73
2023-03-16T07:57:17.018Z,2.07
2023-03-16T07:59:45.642Z,1.90
2023-03-16T08:02:18.233Z,1.60
2023-03-16T08:04:48.244Z,1.53
2023-03-16T08:07:17.382Z,1.23
2023-03-16T08:10:12.226Z,1.50
2023-03-16T08:12:52.675Z,1.33
2023-03-16T08:15:21.618Z,1.87
2023-03-16T08:17:52.475Z,1.50
2023-03-16T08:20:26.548Z,1.30
2023-03-16T08:22:55.141Z,1.40
2023-03-16T08:25:27.809Z,1.33
2023-03-16T08:28:10.725Z,1.40
2023-03-16T08:30:45.872Z,1.33
2023-03-16T08:33:26.111Z,1.40
2023-03-16T08:35:56.085Z,1.20
2023-03-16T08:38:24.285Z,2.07
2023-03-16T08:40:53.473Z,1.53
2023-03-16T08:43:24.012Z,1.40
2023-03-16T08:45:53.867Z,1.20
2023-03-16T08:48:25.953Z,1.20
2023-03-16T08:50:55.428Z,1.20
2023-03-16T08:53:23.408Z,1.33
2023-03-16T08:55:51.877Z,1.07
2023-03-16T08:58:19.969Z,1.00
2023-03-16T09:00:50.205Z,1.33
2023-03-16T09:03:18.416Z,1.20
2023-03-16T09:05:46.352Z,1.20
2023-03-16T09:08:15.667Z,1.00
2023-03-16T09:10:43.573Z,1.27
2023-03-16T09:13:11.585Z,1.13
2023-03-16T09:15:40.438Z,1.00
2023-03-16T09:18:08.351Z,1.00
2023-03-16T09:20:36.573Z,1.00
2023-03-16T09:23:04.941Z,1.13
2023-03-16T09:25:34.209Z,1.00
2023-03-16T09:28:02.132Z,0.90
2023-03-16T09:30:30.315Z,0.97
2023-03-16T09:32:58.484Z,1.07
2023-03-16T09:35:26.773Z,1.33
2023-03-16T09:38:05.686Z,1.30
2023-03-16T09:40:38.210Z,1.10
2023-03-16T09:43:24.921Z,1.17
2023-03-16T09:46:01.779Z,1.33
2023-03-16T09:48:31.772Z,1.47
2023-03-16T09:51:01.681Z,1.17
2023-03-16T09:53:31.446Z,0.97
2023-03-16T09:56:05.231Z,0.87
2023-03-16T09:58:33.328Z,1.07
2023-03-16T10:01:10.109Z,1.50
2023-03-16T10:03:59.079Z,1.20
2023-03-16T10:06:27.916Z,1.03
2023-03-16T10:09:04.986Z,1.20
2023-03-16T10:11:38.490Z,1.20
2023-03-16T10:14:17.709Z,1.00
2023-03-16T10:16:51.340Z,1.40
2023-03-16T10:19:23.502Z,1.27
2023-03-16T10:21:56.009Z,1.40
2023-03-16T10:24:41.110Z,1.57
2023-03-16T10:27:20.503Z,1.17
2023-03-16T10:29:48.852Z,1.38
2023-03-16T10:32:20.004Z,1.73
2023-03-16T10:34:54.980Z,1.52
2023-03-16T10:37:25.455Z,1.67
2023-03-16T10:39:54.938Z,1.50
2023-03-16T10:42:27.131Z,1.40
2023-03-16T10:45:01.771Z,1.45
2023-03-16T10:47:32.909Z,1.20
2023-03-16T10:50:11.587Z,1.60
2023-03-16T10:52:42.970Z,1.15
2023-03-16T10:55:16.974Z,1.10
2023-03-16T10:57:51.394Z,1.08
2023-03-16T11:00:23.296Z,1.33
2023-03-16T11:02:53.681Z,1.40
2023-03-16T11:05:32.725Z,1.50
2023-03-16T11:08:03.713Z,1.30
2023-03-16T11:10:40.447Z,1.30
2023-03-16T11:13:18.870Z,1.17
2023-03-16T11:15:52.030Z,1.20
2023-03-16T11:18:39.759Z,1.35
2023-03-16T11:21:14.132Z,1.10
2023-03-16T11:23:49.825Z,0.93
2023-03-16T11:26:25.316Z,1.60
2023-03-16T11:29:03.655Z,1.35
2023-03-16T11:31:42.712Z,1.70
2023-03-16T11:34:17.660Z,2.28
2023-03-16T11:36:51.364Z,2.00
2023-03-16T11:39:32.277Z,2.20
2023-03-16T11:42:13.197Z,1.27
2023-03-16T11:44:51.546Z,1.50
2023-03-16T11:47:49.111Z,1.30
2023-03-16T11:50:23.298Z,1.40
2023-03-16T11:53:02.420Z,0.98
2023-03-16T11:55:40.891Z,1.48
2023-03-16T11:58:29.220Z,1.80
2023-03-16T12:01:08.727Z,3.67
2023-03-16T12:04:02.939Z,2.00
2023-03-16T12:06:47.065Z,1.02
2023-03-16T12:09:48.204Z,1.02
2023-03-16T12:12:29.584Z,1.27
2023-03-16T12:15:16.548Z,1.08
2023-03-16T12:17:48.064Z,1.30
2023-03-16T12:20:21.271Z,1.13
2023-03-16T12:22:53.646Z,1.00
2023-03-16T12:25:24.836Z,1.20
2023-03-16T12:27:55.548Z,1.00
2023-03-16T12:30:36.205Z,1.10
2023-03-16T12:33:13.757Z,0.93
2023-03-16T12:35:47.878Z,1.10
2023-03-16T12:38:23.769Z,1.00
2023-03-16T12:41:01.151Z,0.95
2023-03-16T12:43:47.633Z,0.90
2023-03-16T12:46:27.065Z,1.05
2023-03-16T12:49:00.318Z,1.02
2023-03-16T12:51:35.692Z,0.82
2023-03-16T12:54:05.681Z,1.00
2023-03-16T12:56:36.739Z,1.00
2023-03-16T12:59:07.615Z,1.13
2023-03-16T13:01:40.128Z,1.00
2023-03-16T13:04:14.275Z,1.10
2023-03-16T13:06:47.500Z,1.23
2023-03-16T13:09:21.580Z,0.80
2023-03-16T13:11:51.268Z,1.30
2023-03-16T13:14:35.721Z,0.90
2023-03-16T13:17:23.836Z,0.82
2023-03-16T13:20:08.941Z,0.80
2023-03-16T13:22:47.353Z,0.82
2023-03-16T13:25:18.774Z,1.08
2023-03-16T13:27:49.597Z,1.08
2023-03-16T13:30:20.645Z,0.60
2023-03-16T13:32:49.625Z,0.60
2023-03-16T13:35:20.517Z,0.88
2023-03-16T13:37:49.800Z,1.10
2023-03-16T13:40:20.789Z,0.80
2023-03-16T13:42:52.894Z,0.70
2023-03-16T13:45:24.237Z,0.77
2023-03-16T13:47:52.603Z,0.80
2023-03-16T13:50:22.165Z,0.73
2023-03-16T13:52:58.738Z,0.95
2023-03-16T13:55:32.739Z,1.00
2023-03-16T13:58:01.812Z,0.98
2023-03-16T14:00:34.658Z,0.82
2023-03-16T14:03:12.863Z,1.00
2023-03-16T14:05:42.169Z,0.70
2023-03-16T14:08:17.058Z,1.00
2023-03-16T14:10:46.801Z,1.08
2023-03-16T14:13:36.292Z,1.35
2023-03-16T14:16:12.977Z,0.95
2023-03-16T14:18:43.691Z,0.88
2023-03-16T14:21:17.826Z,0.70
2023-03-16T14:23:49.308Z,0.70
2023-03-16T14:26:19.416Z,1.00
2023-03-16T14:28:57.496Z,0.75
2023-03-16T14:31:33.619Z,0.80
2023-03-16T14:34:03.845Z,0.60
2023-03-16T14:36:38.662Z,1.15
2023-03-16T14:39:14.356Z,1.00
2023-03-16T14:41:42.406Z,1.13
2023-03-16T14:44:21.589Z,0.80
2023-03-16T14:46:50.716Z,0.88
2023-03-16T14:49:22.107Z,1.00
2023-03-16T14:51:54.832Z,0.80
2023-03-16T14:54:23.920Z,0.75
2023-03-16T14:56:54.339Z,0.80
2023-03-16T14:59:23.012Z,0.75
2023-03-16T15:01:53.559Z,1.10
2023-03-16T15:04:27.902Z,1.00
2023-03-16T15:06:58.270Z,0.60
2023-03-16T15:09:32.766Z,0.88
2023-03-16T15:12:00.804Z,0.93
2023-03-16T15:14:42.713Z,0.90
2023-03-16T15:17:11.019Z,1.10
2023-03-16T15:19:38.919Z,0.82
2023-03-16T15:22:08.808Z,0.80
2023-03-16T15:24:37.241Z,0.75
2023-03-16T15:27:09.929Z,0.93
2023-03-16T15:29:38.222Z,0.90
2023-03-16T15:32:08.155Z,0.90
2023-03-16T15:34:36.114Z,0.93
2023-03-16T15:37:04.442Z,1.15
2023-03-16T15:39:33.860Z,1.10
2023-03-16T15:42:01.815Z,1.00
2023-03-16T15:44:29.680Z,0.82
2023-03-16T15:46:57.645Z,1.15
2023-03-16T15:49:27.047Z,0.95
2023-03-16T15:51:56.497Z,1.10
2023-03-16T15:54:24.698Z,1.00
2023-03-16T15:56:56.009Z,0.70
2023-03-16T15:59:27.137Z,0.90
2023-03-16T16:01:55.045Z,0.85
2023-03-16T16:04:25.111Z,1.00
2023-03-16T16:06:55.435Z,1.10
2023-03-16T16:09:24.148Z,0.88
2023-03-16T16:11:53.644Z,0.90
2023-03-16T16:14:25.967Z,0.80
2023-03-16T16:16:54.917Z,0.98
2023-03-16T16:19:22.991Z,1.10
2023-03-16T16:21:50.894Z,1.15
2023-03-16T16:24:19.335Z,0.82
2023-03-16T16:26:54.424Z,0.90
2023-03-16T16:29:27.179Z,0.90
2023-03-16T16:31:55.428Z,0.85
2023-03-16T16:34:25.587Z,0.88
2023-03-16T16:36:53.959Z,0.90
2023-03-16T16:39:22.157Z,0.90
2023-03-16T16:41:52.259Z,0.98
2023-03-16T16:44:23.618Z,1.00
2023-03-16T16:46:53.715Z,1.05
2023-03-16T16:49:24.827Z,0.90
2023-03-16T16:51:53.678Z,0.75
2023-03-16T16:54:23.352Z,0.85
2023-03-16T16:56:53.897Z,1.17
2023-03-16T16:59:23.777Z,1.02
2023-03-16T17:01:54.413Z,1.08
2023-03-16T17:04:24.875Z,0.80
2023-03-16T17:06:55.741Z,0.90
2023-03-16T17:09:24.329Z,0.82
2023-03-16T17:11:52.319Z,1.00
2023-03-16T17:14:21.778Z,0.93
2023-03-16T17:16:51.664Z,0.80
2023-03-16T17:19:23.303Z,1.15
2023-03-16T17:21:52.229Z,0.93
2023-03-16T17:24:20.109Z,1.10
2023-03-16T17:26:52.292Z,1.05
2023-03-16T17:29:24.355Z,1.33
2023-03-16T17:31:52.916Z,1.15
2023-03-16T17:34:23.999Z,1.30
2023-03-16T17:36:52.438Z,1.23
2023-03-16T17:39:21.767Z,1.48
2023-03-16T17:41:52.363Z,1.30
2023-03-16T17:44:21.438Z,1.00
2023-03-16T17:46:49.803Z,1.23
2023-03-16T17:49:20.705Z,1.40
2023-03-16T17:51:50.060Z,1.10
2023-03-16T17:54:18.072Z,1.25
2023-03-16T17:56:46.665Z,1.30
2023-03-16T17:59:18.823Z,0.90
2023-03-16T18:01:47.958Z,1.10
2023-03-16T18:04:17.753Z,1.10
2023-03-16T18:06:47.602Z,1.30
2023-03-16T18:09:17.917Z,1.48
2023-03-16T18:11:48.285Z,1.10
2023-03-16T18:14:25.406Z,1.48
2023-03-16T18:16:54.612Z,1.73
2023-03-16T18:19:25.380Z,1.25
2023-03-16T18:21:54.214Z,1.30
2023-03-16T18:24:26.587Z,1.25
2023-03-16T18:26:55.312Z,1.70
2023-03-16T18:29:24.108Z,1.80
2023-03-16T18:31:56.188Z,1.92
2023-03-16T18:34:28.806Z,2.25
2023-03-16T18:36:59.723Z,1.80
2023-03-16T18:39:29.066Z,1.70
2023-03-16T18:41:57.054Z,1.52
2023-03-16T18:44:26.824Z,1.40
2023-03-16T18:47:01.773Z,1.27
2023-03-16T18:49:34.097Z,1.30
2023-03-16T18:52:02.102Z,1.30
2023-03-16T18:54:35.575Z,1.45
2023-03-16T18:57:04.809Z,1.20
2023-03-16T18:59:32.812Z,1.33
2023-03-16T19:02:00.963Z,1.60
2023-03-16T19:04:32.696Z,1.38
2023-03-16T19:07:00.830Z,1.40
2023-03-16T19:09:33.199Z,1.40
2023-03-16T19:12:03.707Z,1.15
2023-03-16T19:14:34.598Z,1.25
2023-03-16T19:17:02.571Z,1.27
2023-03-16T19:19:30.494Z,1.00
2023-03-16T19:22:03.436Z,1.40
2023-03-16T19:24:36.514Z,1.55
2023-03-16T19:27:05.411Z,1.17
2023-03-16T19:29:35.642Z,1.27
2023-03-16T19:32:03.707Z,1.40
2023-03-16T19:34:31.796Z,1.80
2023-03-16T19:36:59.711Z,1.40
2023-03-16T19:39:27.862Z,1.42
2023-03-16T19:41:59.440Z,1.67
2023-03-16T19:44:29.357Z,1.80
2023-03-16T19:46:59.164Z,1.70
2023-03-16T19:49:29.385Z,1.70
2023-03-16T19:51:57.793Z,1.70
2023-03-16T19:54:27.632Z,1.98
2023-03-16T19:57:00.336Z,1.60
2023-03-16T19:59:33.916Z,2.05
2023-03-16T20:02:02.326Z,1.67
2023-03-16T20:04:30.686Z,1.77
2023-03-16T20:06:58.630Z,1.52
2023-03-16T20:09:27.442Z,1.52
2023-03-16T20:11:55.329Z,1.60
2023-03-16T20:14:30.731Z,1.60
2023-03-16T20:16:59.135Z,1.70
2023-03-16T20:19:27.068Z,1.50
2023-03-16T20:21:54.999Z,1.55
2023-03-16T20:24:23.306Z,1.38
2023-03-16T20:26:53.598Z,1.55
2023-03-16T20:29:28.485Z,1.77
2023-03-16T20:31:56.955Z,1.45
2023-03-16T20:34:27.204Z,1.70
2023-03-16T20:36:55.868Z,1.67
2023-03-16T20:39:23.814Z,1.75
2023-03-16T20:41:52.723Z,1.70
2023-03-16T20:44:23.570Z,1.70
2023-03-16T20:46:52.931Z,1.50
2023-03-16T20:49:32.772Z,2.00
2023-03-16T20:52:00.717Z,1.90
2023-03-16T20:54:28.615Z,1.55
2023-03-16T20:56:56.592Z,1.65
2023-03-16T20:59:26.555Z,1.70
2023-03-16T21:01:56.378Z,1.52
2023-03-16T21:04:27.298Z,1.60
2023-03-16T21:06:57.595Z,1.65
2023-03-16T21:09:25.711Z,1.67
2023-03-16T21:11:53.590Z,1.50
2023-03-16T21:14:24.402Z,1.60
2023-03-16T21:16:54.244Z,1.88
2023-03-16T21:19:24.902Z,1.90
2023-03-16T21:21:53.149Z,1.83
2023-03-16T21:24:21.190Z,1.90
2023-03-16T21:26:49.202Z,1.80
2023-03-16T21:29:21.253Z,1.67
2023-03-16T21:31:49.556Z,1.80
2023-03-16T21:34:26.196Z,2.00
2023-03-16T21:36:54.200Z,1.80
2023-03-16T21:39:25.156Z,1.70
2023-03-16T21:41:53.574Z,2.03
2023-03-16T21:44:21.840Z,1.60
2023-03-16T21:46:49.892Z,2.30
2023-03-16T21:49:18.064Z,2.08
2023-03-16T21:51:47.735Z,1.90
2023-03-16T21:54:16.908Z,1.98
2023-03-16T21:56:45.925Z,2.13
2023-03-16T21:59:13.874Z,1.80
2023-03-16T22:01:58.249Z,1.98
2023-03-16T22:04:26.640Z,1.90
2023-03-16T22:06:55.929Z,2.00
2023-03-16T22:09:24.970Z,1.55
2023-03-16T22:11:52.905Z,2.00
2023-03-16T22:14:20.861Z,1.90
2023-03-16T22:16:48.763Z,1.90
2023-03-16T22:19:17.936Z,1.73
2023-03-16T22:21:48.455Z,1.50
2023-03-16T22:24:19.715Z,2.03
2023-03-16T22:26:49.044Z,1.90
2023-03-16T22:29:25.361Z,2.10
2023-03-16T22:31:56.964Z,1.95
2023-03-16T22:34:29.853Z,2.20
2023-03-16T22:36:58.628Z,2.08
2023-03-16T22:39:28.009Z,1.75
2023-03-16T22:41:55.942Z,1.70
2023-03-16T22:44:24.918Z,1.83
2023-03-16T22:46:52.972Z,2.28
2023-03-16T22:49:23.873Z,2.00
2023-03-16T22:51:53.793Z,1.55
2023-03-16T22:54:25.416Z,1.85
2023-03-16T22:56:54.983Z,2.03
2023-03-16T22:59:26.160Z,1.90
2023-03-16T23:01:54.255Z,1.42
2023-03-16T23:04:24.516Z,2.22
2023-03-16T23:06:54.664Z,2.13
2023-03-16T23:09:23.372Z,1.90
2023-03-16T23:11:54.242Z,1.88
2023-03-16T23:14:25.225Z,1.60
2023-03-16T23:16:53.604Z,1.95
2023-03-16T23:19:25.361Z,1.80
2023-03-16T23:21:54.750Z,1.52
2023-03-16T23:24:22.939Z,2.05
2023-03-16T23:26:52.046Z,1.90
2023-03-16T23:29:20.818Z,1.98
2023-03-16T23:31:50.394Z,1.80
2023-03-16T23:34:20.088Z,1.75
2023-03-16T23:36:48.045Z,1.80
2023-03-16T23:39:16.167Z,2.08
2023-03-16T23:41:46.785Z,1.90
2023-03-16T23:44:17.716Z,1.65
2023-03-16T23:46:45.903Z,1.70
2023-03-16T23:49:20.337Z,2.07
2023-03-16T23:51:48.277Z,1.80
2023-03-16T23:54:19.479Z,1.80
2023-03-16T23:56:47.578Z,1.90
2023-03-16T23:59:16.429Z,1.90
